Time;durP1;ratioP1;P1;durP2;ratioP2;P2;SDS_P1;SDS_P2;PMS_P1;PMS_P2;Temp;Humidity;BMP_temperature;BMP_pressure;BME280_temperature;BME280_humidity;BME280_pressure;Samples;Min_cycle;Max_cycle;Signal;HPM_P1;HPM_P2
2021/01/12 00:01:49;;;;;;;12.60;10.40;;;;;;;;;;5076216;28;20176;-42
2021/01/12 00:04:15;;;;;;;12.30;10.20;;;;;;;;;;5070717;28;20169;-42
2021/01/12 00:06:41;;;;;;;13.97;9.50;;;;;;;;;;5073092;28;20179;-43
2021/01/12 00:09:07;;;;;;;9.83;8.30;;;;;;;;;;5072599;28;20176;-42
2021/01/12 00:11:32;;;;;;;9.75;7.72;;;;;;;;;;5072849;28;20616;-42
2021/01/12 00:13:57;;;;;;;9.23;7.70;;;;;;;;;;5071068;28;20250;-42
2021/01/12 00:16:22;;;;;;;7.60;6.60;;;;;;;;;;5071721;28;20209;-43
2021/01/12 00:18:48;;;;;;;5.37;4.90;;;;;;;;;;5072546;28;20641;-43
2021/01/12 00:21:13;;;;;;;4.93;4.53;;;;;;;;;;5072863;28;20188;-43
2021/01/12 00:23:38;;;;;;;5.83;5.30;;;;;;;;;;5071561;28;20652;-43
2021/01/12 00:26:10;;;;;;;5.05;4.55;;;;;;;;;;5072095;28;20178;-43
2021/01/12 00:28:35;;;;;;;4.60;4.20;;;;;;;;;;5072861;28;20226;-43
2021/01/12 00:31:04;;;;;;;5.80;5.30;;;;;;;;;;5071438;28;20599;-43
2021/01/12 00:33:30;;;;;;;6.87;5.40;;;;;;;;;;5071991;28;20210;-42
2021/01/12 00:35:55;;;;;;;6.10;5.00;;;;;;;;;;5071553;28;20663;-42
2021/01/12 00:38:20;;;;;;;5.32;4.82;;;;;;;;;;5068701;28;20595;-43
2021/01/12 00:40:46;;;;;;;5.25;4.75;;;;;;;;;;5074878;28;20188;-42
2021/01/12 00:43:11;;;;;;;6.03;4.90;;;;;;;;;;5069844;28;20175;-43
2021/01/12 00:45:36;;;;;;;5.30;4.90;;;;;;;;;;5072336;28;20260;-43
2021/01/12 00:48:01;;;;;;;5.65;5.10;;;;;;;;;;5071577;28;20170;-43
2021/01/12 00:50:26;;;;;;;5.57;4.83;;;;;;;;;;5073755;28;20277;-42
2021/01/12 00:52:51;;;;;;;5.50;5.00;;;;;;;;;;5071310;28;20174;-42
2021/01/12 00:55:16;;;;;;;5.60;5.10;;;;;;;;;;5070020;28;20205;-42
2021/01/12 00:57:42;;;;;;;4.72;4.32;;;;;;;;;;5071693;28;20171;-42
2021/01/12 01:00:07;;;;;;;5.85;5.25;;;;;;;;;;5066561;28;20772;-42
2021/01/12 01:02:32;;;;;;;5.00;4.50;;;;;;;;;;5070001;28;20224;-42
2021/01/12 01:04:57;;;;;;;5.25;4.78;;;;;;;;;;5069852;28;20208;-42
2021/01/12 01:07:22;;;;;;;5.43;4.30;;;;;;;;;;5071353;28;20214;-42
2021/01/12 01:09:47;;;;;;;5.20;4.70;;;;;;;;;;5071632;28;20669;-43
2021/01/12 01:12:13;;;;;;;5.10;4.60;;;;;;;;;;5072451;28;20179;-42
2021/01/12 01:14:38;;;;;;;4.13;3.73;;;;;;;;;;5069730;28;20187;-42
2021/01/12 01:17:03;;;;;;;5.10;4.60;;;;;;;;;;5071199;28;20512;-42
2021/01/12 01:19:28;;;;;;;4.60;4.20;;;;;;;;;;5071606;28;20178;-42
2021/01/12 01:21:53;;;;;;;4.93;4.53;;;;;;;;;;5071075;28;20182;-42
2021/01/12 01:24:18;;;;;;;4.53;4.13;;;;;;;;;;5069185;28;20551;-43
2021/01/12 01:26:44;;;;;;;5.53;5.03;;;;;;;;;;5069596;28;20255;-42
2021/01/12 01:29:09;;;;;;;5.10;4.60;;;;;;;;;;5071238;28;20180;-43
2021/01/12 01:31:37;;;;;;;4.38;3.90;;;;;;;;;;5073166;28;20212;-42
2021/01/12 01:34:03;;;;;;;4.83;4.43;;;;;;;;;;5070921;28;20205;-43
2021/01/12 01:36:28;;;;;;;4.73;4.33;;;;;;;;;;5068976;28;20720;-42
2021/01/12 01:38:53;;;;;;;5.47;4.40;;;;;;;;;;5070925;28;20286;-43
2021/01/12 01:41:18;;;;;;;5.10;4.70;;;;;;;;;;5071203;28;20668;-42
2021/01/12 01:43:43;;;;;;;5.10;4.50;;;;;;;;;;5084311;28;20733;-43
2021/01/12 01:46:09;;;;;;;4.40;4.00;;;;;;;;;;5066802;28;20183;-41
2021/01/12 01:48:35;;;;;;;5.37;4.60;;;;;;;;;;5070844;28;20244;-42
2021/01/12 01:51:04;;;;;;;5.17;4.67;;;;;;;;;;5070856;28;20213;-42
2021/01/12 01:53:32;;;;;;;5.17;4.67;;;;;;;;;;5071209;28;20707;-43
2021/01/12 01:55:58;;;;;;;4.57;4.17;;;;;;;;;;5070090;28;20974;-43
2021/01/12 01:58:23;;;;;;;4.77;4.27;;;;;;;;;;5069692;28;20593;-43
2021/01/12 02:00:48;;;;;;;5.25;4.75;;;;;;;;;;5076290;28;20661;-42
2021/01/12 02:03:16;;;;;;;4.60;4.20;;;;;;;;;;5079993;28;20605;-42
2021/01/12 02:05:56;;;;;;;7.13;4.93;;;;;;;;;;5068575;28;20186;-42
2021/01/12 02:08:23;;;;;;;5.37;4.87;;;;;;;;;;5070468;28;20593;-43
2021/01/12 02:10:49;;;;;;;5.70;4.77;;;;;;;;;;5072483;28;20706;-43
2021/01/12 02:13:15;;;;;;;4.90;4.43;;;;;;;;;;5076444;28;20691;-42
2021/01/12 02:15:41;;;;;;;5.13;4.73;;;;;;;;;;5067916;28;21229;-43
2021/01/12 02:18:08;;;;;;;5.20;4.70;;;;;;;;;;5069927;28;20682;-43
2021/01/12 02:20:34;;;;;;;4.80;4.40;;;;;;;;;;5070274;28;20602;-43
2021/01/12 02:23:05;;;;;;;5.27;4.73;;;;;;;;;;5076599;28;21184;-43
2021/01/12 02:25:34;;;;;;;4.93;4.43;;;;;;;;;;5065765;28;20198;-43
2021/01/12 02:28:00;;;;;;;5.87;4.67;;;;;;;;;;5068786;28;20607;-43
2021/01/12 02:30:25;;;;;;;5.10;4.60;;;;;;;;;;5070382;28;20659;-42
2021/01/12 02:32:50;;;;;;;5.78;4.35;;;;;;;;;;5071605;28;20615;-42
2021/01/12 02:35:17;;;;;;;4.87;4.40;;;;;;;;;;5068015;28;20198;-42
2021/01/12 02:37:44;;;;;;;4.40;4.00;;;;;;;;;;5070108;28;20174;-42
2021/01/12 02:40:10;;;;;;;4.90;4.40;;;;;;;;;;5068119;28;20663;-43
2021/01/12 02:42:35;;;;;;;6.83;4.50;;;;;;;;;;5070138;28;20598;-43
2021/01/12 02:45:00;;;;;;;4.80;4.40;;;;;;;;;;5067841;28;20183;-43
2021/01/12 02:47:25;;;;;;;5.80;4.70;;;;;;;;;;5068128;28;20186;-43
2021/01/12 02:49:50;;;;;;;5.65;4.68;;;;;;;;;;5070343;28;20686;-43
2021/01/12 02:52:15;;;;;;;4.88;4.43;;;;;;;;;;5067035;28;20188;-43
2021/01/12 02:54:41;;;;;;;4.63;4.03;;;;;;;;;;5069786;28;20231;-43
2021/01/12 02:57:06;;;;;;;5.20;4.23;;;;;;;;;;5069742;28;20182;-43
2021/01/12 02:59:32;;;;;;;5.47;4.40;;;;;;;;;;5069974;28;20174;-42
2021/01/12 03:01:57;;;;;;;6.27;4.77;;;;;;;;;;5067973;28;20174;-43
2021/01/12 03:04:22;;;;;;;4.20;3.77;;;;;;;;;;5070543;28;20502;-43
2021/01/12 03:06:47;;;;;;;5.35;4.18;;;;;;;;;;5070172;28;20185;-43
2021/01/12 03:09:12;;;;;;;5.32;4.82;;;;;;;;;;5069658;28;20654;-43
2021/01/12 03:11:37;;;;;;;12.05;10.02;;;;;;;;;;5068431;28;20179;-43
2021/01/12 03:14:03;;;;;;;12.10;10.57;;;;;;;;;;5070667;28;20245;-42
2021/01/12 03:16:28;;;;;;;17.90;14.00;;;;;;;;;;5069349;28;20215;-43
2021/01/12 03:18:53;;;;;;;18.27;14.20;;;;;;;;;;5070216;28;20177;-43
2021/01/12 03:21:18;;;;;;;16.13;13.23;;;;;;;;;;5069549;28;20265;-43
2021/01/12 03:23:44;;;;;;;18.77;14.45;;;;;;;;;;5067884;28;20259;-43
2021/01/12 03:26:09;;;;;;;18.53;15.10;;;;;;;;;;5070545;28;20187;-42
2021/01/12 03:28:34;;;;;;;15.50;13.90;;;;;;;;;;5069973;28;20254;-42
2021/01/12 03:31:00;;;;;;;15.97;13.00;;;;;;;;;;5065467;28;20181;-43
2021/01/12 03:33:26;;;;;;;17.43;13.53;;;;;;;;;;5046470;28;20202;-43
2021/01/12 03:35:51;;;;;;;17.05;13.70;;;;;;;;;;5070104;28;21196;-43
2021/01/12 03:38:16;;;;;;;19.95;14.23;;;;;;;;;;5069773;28;20259;-43
2021/01/12 03:40:41;;;;;;;17.03;15.23;;;;;;;;;;5069876;28;20170;-43
2021/01/12 03:43:06;;;;;;;17.45;13.77;;;;;;;;;;5065956;28;20177;-43
2021/01/12 03:45:32;;;;;;;17.63;13.77;;;;;;;;;;5069586;28;20179;-43
2021/01/12 03:47:57;;;;;;;20.63;15.73;;;;;;;;;;5069861;28;20281;-43
2021/01/12 03:50:24;;;;;;;19.17;15.73;;;;;;;;;;5069929;28;20191;-43
2021/01/12 03:52:53;;;;;;;19.93;15.83;;;;;;;;;;5070811;28;20183;-43
2021/01/12 03:55:19;;;;;;;20.47;16.07;;;;;;;;;;5073008;28;20643;-43
2021/01/12 03:57:44;;;;;;;22.13;15.98;;;;;;;;;;5074128;28;20614;-43
2021/01/12 04:00:09;;;;;;;25.10;16.17;;;;;;;;;;5073022;28;20177;-43
2021/01/12 04:02:34;;;;;;;18.47;14.80;;;;;;;;;;5071045;28;20169;-41
2021/01/12 04:05:00;;;;;;;22.73;16.25;;;;;;;;;;5073188;28;20169;-42
2021/01/12 04:07:25;;;;;;;24.63;16.43;;;;;;;;;;5074008;28;20191;-43
2021/01/12 04:09:51;;;;;;;24.43;16.87;;;;;;;;;;5072846;28;20600;-44
2021/01/12 04:12:16;;;;;;;20.90;15.50;;;;;;;;;;5070385;28;20171;-44
2021/01/12 04:14:41;;;;;;;22.57;16.50;;;;;;;;;;5072913;28;20251;-44
2021/01/12 04:17:06;;;;;;;21.00;16.63;;;;;;;;;;5073346;28;20191;-43
2021/01/12 04:19:31;;;;;;;21.70;16.57;;;;;;;;;;5073088;28;20182;-43
2021/01/12 04:22:00;;;;;;;21.15;15.35;;;;;;;;;;5072568;28;20720;-42
2021/01/12 04:24:25;;;;;;;24.03;15.63;;;;;;;;;;5070305;28;20204;-42
2021/01/12 04:26:50;;;;;;;23.73;16.90;;;;;;;;;;5072595;28;21018;-42
2021/01/12 04:29:15;;;;;;;25.10;16.47;;;;;;;;;;5076615;28;20167;-42
2021/01/12 04:31:40;;;;;;;21.33;15.60;;;;;;;;;;5083119;28;20701;-42
2021/01/12 04:34:05;;;;;;;23.95;18.08;;;;;;;;;;5070327;28;20183;-42
2021/01/12 04:36:30;;;;;;;25.45;17.92;;;;;;;;;;5072181;28;20230;-42
2021/01/12 04:38:56;;;;;;;26.37;17.20;;;;;;;;;;5074003;28;20172;-41
2021/01/12 04:41:21;;;;;;;25.80;18.50;;;;;;;;;;5071487;28;20539;-41
2021/01/12 04:43:46;;;;;;;23.00;18.00;;;;;;;;;;5070258;28;20593;-42
2021/01/12 04:46:11;;;;;;;24.47;16.90;;;;;;;;;;5069943;28;20167;-42
2021/01/12 04:48:36;;;;;;;29.88;19.67;;;;;;;;;;5072385;28;20172;-42
2021/01/12 04:51:02;;;;;;;29.23;19.40;;;;;;;;;;5072022;28;20171;-42
2021/01/12 04:53:35;;;;;;;27.73;18.27;;;;;;;;;;5069247;28;20203;-42
2021/01/12 04:56:01;;;;;;;26.70;18.73;;;;;;;;;;5073237;28;20746;-42
2021/01/12 04:58:35;;;;;;;27.53;19.10;;;;;;;;;;5072163;28;20725;-41
2021/01/12 05:01:00;;;;;;;26.30;18.80;;;;;;;;;;5070733;28;20195;-42
2021/01/12 05:03:26;;;;;;;24.17;18.02;;;;;;;;;;5069800;28;21017;-42
2021/01/12 05:05:51;;;;;;;28.33;20.07;;;;;;;;;;5070757;28;20184;-42
2021/01/12 05:08:18;;;;;;;29.03;18.43;;;;;;;;;;5069660;28;20179;-42
2021/01/12 05:10:48;;;;;;;29.80;19.43;;;;;;;;;;5068268;28;20571;-41
2021/01/12 05:13:14;;;;;;;29.60;18.73;;;;;;;;;;5067487;28;20653;-41
2021/01/12 05:15:40;;;;;;;27.23;19.03;;;;;;;;;;5067469;28;20654;-42
2021/01/12 05:18:06;;;;;;;31.20;19.60;;;;;;;;;;5068695;28;20168;-42
2021/01/12 05:20:36;;;;;;;31.60;21.20;;;;;;;;;;5069680;28;20603;-42
2021/01/12 05:23:06;;;;;;;32.20;21.60;;;;;;;;;;5063409;28;20589;-42
2021/01/12 05:25:36;;;;;;;30.83;20.13;;;;;;;;;;5069724;28;21038;-42
2021/01/12 05:28:02;;;;;;;30.90;20.47;;;;;;;;;;5073136;28;20760;-42
2021/01/12 05:30:27;;;;;;;31.23;19.67;;;;;;;;;;5071182;28;20604;-42
2021/01/12 05:32:53;;;;;;;31.77;19.53;;;;;;;;;;5083877;28;21169;-42
2021/01/12 05:35:18;;;;;;;31.50;20.03;;;;;;;;;;5070680;28;20670;-41
2021/01/12 05:37:43;;;;;;;33.70;20.60;;;;;;;;;;5066568;28;20228;-42
2021/01/12 05:40:11;;;;;;;32.10;20.37;;;;;;;;;;5067073;28;20179;-42
2021/01/12 05:42:39;;;;;;;35.77;22.00;;;;;;;;;;5069479;28;20198;-41
2021/01/12 05:45:06;;;;;;;32.93;21.40;;;;;;;;;;5064994;28;20631;-42
2021/01/12 05:47:31;;;;;;;33.40;21.60;;;;;;;;;;5069054;28;20970;-42
2021/01/12 05:49:56;;;;;;;36.17;22.23;;;;;;;;;;5076645;28;21191;-41
2021/01/12 05:52:24;;;;;;;30.83;20.37;;;;;;;;;;5068262;28;20645;-46
2021/01/12 05:55:00;;;;;;;28.33;18.80;;;;;;;;;;5063321;28;20184;-41
2021/01/12 05:57:28;;;;;;;37.73;21.13;;;;;;;;;;5069075;28;20617;-42
2021/01/12 06:00:00;;;;;;;34.47;23.40;;;;;;;;;;5065420;28;20695;-42
2021/01/12 06:02:25;;;;;;;27.40;17.90;;;;;;;;;;5065927;28;20597;-42
2021/01/12 06:04:51;;;;;;;34.60;22.10;;;;;;;;;;5064216;28;20613;-42
2021/01/12 06:07:16;;;;;;;34.23;21.43;;;;;;;;;;5067860;28;20266;-42
2021/01/12 06:09:42;;;;;;;34.90;21.77;;;;;;;;;;5066848;28;20257;-42
2021/01/12 06:12:08;;;;;;;32.67;20.67;;;;;;;;;;5066741;28;20176;-42
2021/01/12 06:14:37;;;;;;;32.23;21.53;;;;;;;;;;5063264;28;20210;-42
2021/01/12 06:17:02;;;;;;;31.50;19.50;;;;;;;;;;5066486;28;20571;-41
2021/01/12 06:19:28;;;;;;;29.07;19.50;;;;;;;;;;5067258;28;20609;-42
2021/01/12 06:21:54;;;;;;;31.17;20.03;;;;;;;;;;5067119;28;20195;-42
2021/01/12 06:24:34;;;;;;;33.93;21.50;;;;;;;;;;5065192;28;20750;-42
2021/01/12 06:26:59;;;;;;;31.43;18.90;;;;;;;;;;5065132;28;20225;-42
2021/01/12 06:29:28;;;;;;;30.60;20.03;;;;;;;;;;5047797;28;21085;-42
2021/01/12 06:31:54;;;;;;;34.00;20.63;;;;;;;;;;5064988;28;20179;-42
2021/01/12 06:34:31;;;;;;;32.50;19.67;;;;;;;;;;5055222;28;20624;-42
2021/01/12 06:36:57;;;;;;;31.60;19.13;;;;;;;;;;5037237;28;20752;-42
2021/01/12 06:39:28;;;;;;;25.80;17.80;;;;;;;;;;5079779;28;20702;-42
2021/01/12 06:41:53;;;;;;;27.93;20.83;;;;;;;;;;5083988;28;20584;-42
2021/01/12 06:44:24;;;;;;;27.50;18.38;;;;;;;;;;5084441;28;20576;-42
2021/01/12 06:46:50;;;;;;;28.80;20.10;;;;;;;;;;5086501;28;20592;-42
2021/01/12 06:49:19;;;;;;;28.60;18.27;;;;;;;;;;5076117;28;20677;-41
2021/01/12 06:51:53;;;;;;;28.53;18.83;;;;;;;;;;5060646;28;20601;-41
2021/01/12 06:54:19;;;;;;;29.70;20.07;;;;;;;;;;5064928;28;20630;-41
2021/01/12 06:56:45;;;;;;;27.73;18.70;;;;;;;;;;5069462;28;20661;-42
2021/01/12 06:59:12;;;;;;;27.60;18.13;;;;;;;;;;5068033;28;20623;-42
2021/01/12 07:01:38;;;;;;;30.20;18.30;;;;;;;;;;5066935;28;20179;-42
2021/01/12 07:04:04;;;;;;;26.87;18.77;;;;;;;;;;5065794;28;21216;-42
2021/01/12 07:06:32;;;;;;;29.43;18.57;;;;;;;;;;5069301;28;20672;-42
2021/01/12 07:08:58;;;;;;;27.50;17.80;;;;;;;;;;5064944;28;20179;-42
2021/01/12 07:11:24;;;;;;;29.00;19.20;;;;;;;;;;5069541;28;21152;-42
2021/01/12 07:13:52;;;;;;;24.55;17.85;;;;;;;;;;5067531;28;20998;-43
2021/01/12 07:16:17;;;;;;;25.93;18.90;;;;;;;;;;5068619;28;20200;-42
2021/01/12 07:18:57;;;;;;;23.40;18.20;;;;;;;;;;5069980;28;20643;-43
2021/01/12 07:21:29;;;;;;;31.77;18.17;;;;;;;;;;5069769;28;20164;-42
2021/01/12 07:24:01;;;;;;;25.57;17.40;;;;;;;;;;5067905;28;21178;-42
2021/01/12 07:26:27;;;;;;;25.27;17.50;;;;;;;;;;5073585;28;20606;-42
2021/01/12 07:29:03;;;;;;;28.30;18.70;;;;;;;;;;5075138;28;20594;-42
2021/01/12 07:31:28;;;;;;;28.80;18.70;;;;;;;;;;5073818;28;20643;-43
2021/01/12 07:33:53;;;;;;;25.73;17.33;;;;;;;;;;5071826;28;20648;-45
2021/01/12 07:36:18;;;;;;;24.93;18.00;;;;;;;;;;5071595;28;20200;-42
2021/01/12 07:38:45;;;;;;;25.73;17.57;;;;;;;;;;5073929;28;20178;-43
2021/01/12 07:41:12;;;;;;;28.60;19.53;;;;;;;;;;5063437;28;20195;-42
2021/01/12 07:43:37;;;;;;;22.93;17.00;;;;;;;;;;5067519;28;20585;-42
2021/01/12 07:46:03;;;;;;;27.58;17.75;;;;;;;;;;5072977;28;20592;-42
2021/01/12 07:48:28;;;;;;;28.30;18.00;;;;;;;;;;5072822;28;20222;-43
2021/01/12 07:50:53;;;;;;;29.67;18.07;;;;;;;;;;5072886;28;20210;-42
2021/01/12 07:53:19;;;;;;;31.30;19.13;;;;;;;;;;5072507;28;20179;-43
2021/01/12 07:55:45;;;;;;;25.83;16.43;;;;;;;;;;5069051;28;20236;-42
2021/01/12 07:58:11;;;;;;;27.47;18.10;;;;;;;;;;5072839;28;20248;-42
2021/01/12 08:00:37;;;;;;;22.60;16.80;;;;;;;;;;5073301;28;20589;-42
2021/01/12 08:03:03;;;;;;;24.23;17.90;;;;;;;;;;5072459;28;20600;-42
2021/01/12 08:05:28;;;;;;;21.70;16.40;;;;;;;;;;5050660;28;20249;-43
2021/01/12 08:08:03;;;;;;;24.07;16.57;;;;;;;;;;5072385;28;21143;-42
2021/01/12 08:10:28;;;;;;;19.70;15.53;;;;;;;;;;5072172;28;20209;-42
2021/01/12 08:13:02;;;;;;;21.30;15.80;;;;;;;;;;5076780;28;20671;-42
2021/01/12 08:15:27;;;;;;;21.90;16.50;;;;;;;;;;5070318;28;20204;-42
2021/01/12 08:17:52;;;;;;;23.10;15.60;;;;;;;;;;5072428;28;20583;-42
2021/01/12 08:20:18;;;;;;;28.70;17.57;;;;;;;;;;5072342;28;20734;-42
2021/01/12 08:22:49;;;;;;;26.70;16.40;;;;;;;;;;5073115;28;20227;-42
2021/01/12 08:25:15;;;;;;;22.77;15.67;;;;;;;;;;5070264;28;20679;-42
2021/01/12 08:27:45;;;;;;;23.38;15.32;;;;;;;;;;5072478;28;21109;-42
2021/01/12 08:30:11;;;;;;;20.53;14.90;;;;;;;;;;5072631;28;20210;-42
2021/01/12 08:32:39;;;;;;;21.10;14.93;;;;;;;;;;5073800;28;20637;-42
2021/01/12 08:35:08;;;;;;;20.20;15.17;;;;;;;;;;5070509;28;20530;-43
2021/01/12 08:37:43;;;;;;;21.83;13.67;;;;;;;;;;5068070;28;20596;-42
2021/01/12 08:40:09;;;;;;;21.00;14.90;;;;;;;;;;5072011;28;20622;-42
2021/01/12 08:42:40;;;;;;;23.50;15.73;;;;;;;;;;5073045;28;21157;-42
2021/01/12 08:45:15;;;;;;;21.27;15.10;;;;;;;;;;5070475;28;20563;-42
2021/01/12 08:47:40;;;;;;;22.47;16.37;;;;;;;;;;5072194;28;20707;-42
2021/01/12 08:50:06;;;;;;;22.20;15.73;;;;;;;;;;5072156;28;20684;-42
2021/01/12 08:52:32;;;;;;;20.67;14.77;;;;;;;;;;5071845;28;20594;-42
2021/01/12 08:54:57;;;;;;;20.80;15.30;;;;;;;;;;5070081;28;20579;-42
2021/01/12 08:57:22;;;;;;;21.30;15.00;;;;;;;;;;5071899;28;20290;-42
2021/01/12 08:59:47;;;;;;;24.53;17.13;;;;;;;;;;5072087;28;20205;-42
2021/01/12 09:02:20;;;;;;;22.73;15.52;;;;;;;;;;5082830;28;20167;-42
2021/01/12 09:04:45;;;;;;;18.57;14.03;;;;;;;;;;5090145;28;20187;-42
2021/01/12 09:07:11;;;;;;;18.80;14.33;;;;;;;;;;5090267;28;20573;-42
2021/01/12 09:09:36;;;;;;;18.47;13.10;;;;;;;;;;5091926;28;20264;-41
2021/01/12 09:12:04;;;;;;;20.77;13.63;;;;;;;;;;5090202;28;20209;-41
2021/01/12 09:14:30;;;;;;;19.70;13.80;;;;;;;;;;5089818;28;20223;-41
2021/01/12 09:16:56;;;;;;;18.50;13.60;;;;;;;;;;5091830;28;20648;-41
2021/01/12 09:19:22;;;;;;;17.50;13.17;;;;;;;;;;5085921;28;20227;-41
2021/01/12 09:21:47;;;;;;;17.77;12.38;;;;;;;;;;5071189;28;20579;-41
2021/01/12 09:24:16;;;;;;;19.20;13.50;;;;;;;;;;5070494;28;20201;-42
2021/01/12 09:26:41;;;;;;;17.10;12.20;;;;;;;;;;5071436;28;20198;-41
2021/01/12 09:29:08;;;;;;;16.43;11.00;;;;;;;;;;5071138;28;20597;-41
2021/01/12 09:31:40;;;;;;;16.90;11.70;;;;;;;;;;5071272;28;20166;-41
2021/01/12 09:34:06;;;;;;;19.50;11.80;;;;;;;;;;5072378;28;20610;-42
2021/01/12 09:36:32;;;;;;;12.60;9.90;;;;;;;;;;5069052;28;20637;-41
2021/01/12 09:38:58;;;;;;;14.70;10.67;;;;;;;;;;5071215;28;20956;-42
2021/01/12 09:41:27;;;;;;;12.20;9.90;;;;;;;;;;5069192;28;20606;-41
2021/01/12 09:43:52;;;;;;;11.63;9.60;;;;;;;;;;5075903;28;20183;-43
2021/01/12 09:46:18;;;;;;;13.00;9.80;;;;;;;;;;5089118;28;21290;-42
2021/01/12 09:48:43;;;;;;;11.23;8.70;;;;;;;;;;5074934;28;20674;-42
2021/01/12 09:51:18;;;;;;;11.73;8.80;;;;;;;;;;5068971;28;20269;-42
2021/01/12 09:53:44;;;;;;;10.47;7.30;;;;;;;;;;5067452;28;20185;-43
2021/01/12 09:56:10;;;;;;;8.30;6.97;;;;;;;;;;5042530;28;20658;-42
2021/01/12 09:58:35;;;;;;;10.70;8.10;;;;;;;;;;5069825;28;20596;-42
2021/01/12 10:01:00;;;;;;;8.97;8.07;;;;;;;;;;5070029;28;20166;-43
2021/01/12 10:03:26;;;;;;;12.23;8.90;;;;;;;;;;5069887;28;20264;-43
2021/01/12 10:05:51;;;;;;;11.50;8.98;;;;;;;;;;5066787;28;20182;-42
2021/01/12 10:08:16;;;;;;;8.87;7.97;;;;;;;;;;5069595;28;20203;-43
2021/01/12 10:10:41;;;;;;;13.73;8.67;;;;;;;;;;5069670;28;20547;-42
2021/01/12 10:13:06;;;;;;;14.87;8.60;;;;;;;;;;5069084;28;20217;-43
2021/01/12 10:15:32;;;;;;;9.53;7.93;;;;;;;;;;5066521;28;20584;-42
2021/01/12 10:17:58;;;;;;;9.97;8.40;;;;;;;;;;5070067;28;20199;-43
2021/01/12 10:20:23;;;;;;;12.07;10.53;;;;;;;;;;5069285;28;20604;-43
2021/01/12 10:22:48;;;;;;;10.85;8.75;;;;;;;;;;5069317;28;20160;-43
2021/01/12 10:25:14;;;;;;;11.27;9.65;;;;;;;;;;5068358;28;20279;-43
2021/01/12 10:27:41;;;;;;;9.50;8.10;;;;;;;;;;5070300;28;20176;-42
2021/01/12 10:30:07;;;;;;;8.93;7.43;;;;;;;;;;5070581;28;20713;-42
2021/01/12 10:32:32;;;;;;;11.03;8.70;;;;;;;;;;5069359;28;20623;-42
2021/01/12 10:34:58;;;;;;;8.90;8.03;;;;;;;;;;5067121;28;21146;-43
2021/01/12 10:37:23;;;;;;;9.20;7.97;;;;;;;;;;5072590;28;20183;-42
2021/01/12 10:39:49;;;;;;;10.63;8.80;;;;;;;;;;5069634;28;20188;-42
2021/01/12 10:42:14;;;;;;;9.47;8.57;;;;;;;;;;5069610;28;20600;-43
2021/01/12 10:44:39;;;;;;;9.43;7.70;;;;;;;;;;5063454;28;20232;-42
2021/01/12 10:47:04;;;;;;;8.05;7.25;;;;;;;;;;5060321;28;20177;-42
2021/01/12 10:49:29;;;;;;;8.07;7.13;;;;;;;;;;5067937;28;20181;-43
2021/01/12 10:51:58;;;;;;;6.50;5.80;;;;;;;;;;5065724;28;20745;-42
2021/01/12 10:54:23;;;;;;;8.43;7.47;;;;;;;;;;5064716;28;20232;-42
2021/01/12 10:56:48;;;;;;;7.67;6.57;;;;;;;;;;5065877;28;20739;-42
2021/01/12 10:59:14;;;;;;;7.60;6.90;;;;;;;;;;5069135;28;20216;-42
2021/01/12 11:01:39;;;;;;;7.25;6.10;;;;;;;;;;5071943;28;20185;-42
2021/01/12 11:04:04;;;;;;;5.75;5.00;;;;;;;;;;5071290;28;20324;-42
2021/01/12 11:06:36;;;;;;;4.05;3.75;;;;;;;;;;5072241;28;20196;-42
2021/01/12 11:09:01;;;;;;;4.80;4.40;;;;;;;;;;5073049;28;20176;-42
2021/01/12 11:11:27;;;;;;;3.88;3.40;;;;;;;;;;5072270;28;20594;-42
2021/01/12 11:13:56;;;;;;;3.70;3.33;;;;;;;;;;5073557;28;20225;-42
2021/01/12 11:16:22;;;;;;;3.43;3.13;;;;;;;;;;5071497;28;20654;-43
2021/01/12 11:18:47;;;;;;;2.15;2.00;;;;;;;;;;5073380;28;20601;-42
2021/01/12 11:21:12;;;;;;;1.90;1.80;;;;;;;;;;5072690;28;20198;-42
2021/01/12 11:23:37;;;;;;;1.70;1.60;;;;;;;;;;5072104;28;20167;-42
2021/01/12 11:26:02;;;;;;;2.55;1.88;;;;;;;;;;5071053;28;20214;-42
2021/01/12 11:28:28;;;;;;;2.58;2.17;;;;;;;;;;5074409;28;20191;-41
2021/01/12 11:30:53;;;;;;;1.80;1.70;;;;;;;;;;5072513;28;20170;-42
2021/01/12 11:33:18;;;;;;;1.80;1.70;;;;;;;;;;5073354;28;20510;-42
2021/01/12 11:35:43;;;;;;;2.70;2.40;;;;;;;;;;5071688;28;20204;-42
2021/01/12 11:38:08;;;;;;;1.97;1.90;;;;;;;;;;5074456;28;20261;-42
2021/01/12 11:40:34;;;;;;;1.95;1.85;;;;;;;;;;5072178;28;20179;-43
2021/01/12 11:42:59;;;;;;;6.83;1.50;;;;;;;;;;5073354;28;20173;-42
2021/01/12 11:45:25;;;;;;;2.20;2.10;;;;;;;;;;5071021;28;20601;-41
2021/01/12 11:47:50;;;;;;;2.83;2.37;;;;;;;;;;5074261;28;20175;-41
2021/01/12 11:50:15;;;;;;;1.90;1.80;;;;;;;;;;5072154;28;20203;-41
2021/01/12 11:52:41;;;;;;;2.20;1.70;;;;;;;;;;5072845;28;20190;-42
2021/01/12 11:55:06;;;;;;;1.40;1.30;;;;;;;;;;5070154;28;20209;-42
2021/01/12 11:57:31;;;;;;;1.43;1.37;;;;;;;;;;5067378;28;20174;-42
2021/01/12 11:59:57;;;;;;;1.30;1.30;;;;;;;;;;5071447;28;20270;-42
2021/01/12 12:02:22;;;;;;;1.13;1.13;;;;;;;;;;5071031;28;20548;-42
2021/01/12 12:04:47;;;;;;;1.10;1.10;;;;;;;;;;5072841;28;20321;-42
2021/01/12 12:07:12;;;;;;;1.50;1.40;;;;;;;;;;5071053;28;20175;-42
2021/01/12 12:09:37;;;;;;;1.97;1.50;;;;;;;;;;5072265;28;21053;-42
2021/01/12 12:12:03;;;;;;;1.20;1.20;;;;;;;;;;5070750;28;20661;-43
2021/01/12 12:14:28;;;;;;;1.20;1.20;;;;;;;;;;5072017;28;20219;-42
2021/01/12 12:16:54;;;;;;;1.77;1.67;;;;;;;;;;5070043;28;20252;-42
2021/01/12 12:19:20;;;;;;;1.70;1.30;;;;;;;;;;5068260;28;20175;-43
2021/01/12 12:21:47;;;;;;;1.70;1.60;;;;;;;;;;5065742;28;20621;-42
2021/01/12 12:24:13;;;;;;;1.60;1.50;;;;;;;;;;5067900;28;20237;-42
2021/01/12 12:26:38;;;;;;;1.20;1.20;;;;;;;;;;5068766;28;20663;-42
2021/01/12 12:29:03;;;;;;;1.60;1.50;;;;;;;;;;5067462;28;20596;-42
2021/01/12 12:31:28;;;;;;;1.00;1.00;;;;;;;;;;5068987;28;20190;-42
2021/01/12 12:33:53;;;;;;;1.10;1.10;;;;;;;;;;5067541;28;20183;-42
2021/01/12 12:36:19;;;;;;;1.85;0.90;;;;;;;;;;5068709;28;20206;-42
2021/01/12 12:38:47;;;;;;;0.87;0.87;;;;;;;;;;5064310;28;20211;-42
2021/01/12 12:41:13;;;;;;;1.17;1.10;;;;;;;;;;5066957;28;20626;-43
2021/01/12 12:43:39;;;;;;;1.73;1.30;;;;;;;;;;5062502;28;20609;-42
2021/01/12 12:46:05;;;;;;;1.23;1.23;;;;;;;;;;5063746;28;20632;-42
2021/01/12 12:48:32;;;;;;;1.30;1.20;;;;;;;;;;5067063;28;20663;-42
2021/01/12 12:50:59;;;;;;;1.00;1.00;;;;;;;;;;5068885;28;20228;-42
2021/01/12 12:53:24;;;;;;;1.07;1.07;;;;;;;;;;5066382;28;20633;-43
2021/01/12 12:55:49;;;;;;;0.90;0.90;;;;;;;;;;5065417;28;20653;-43
2021/01/12 12:58:14;;;;;;;1.30;1.20;;;;;;;;;;5069858;28;20175;-42
2021/01/12 13:00:40;;;;;;;1.00;1.00;;;;;;;;;;5070359;28;20190;-42
2021/01/12 13:03:05;;;;;;;2.00;1.30;;;;;;;;;;5071519;28;20220;-43
2021/01/12 13:05:31;;;;;;;1.30;1.20;;;;;;;;;;5068364;28;20183;-43
2021/01/12 13:07:56;;;;;;;1.20;1.20;;;;;;;;;;5069542;28;20194;-43
2021/01/12 13:10:21;;;;;;;1.70;1.25;;;;;;;;;;5072040;28;20228;-43
2021/01/12 13:12:47;;;;;;;1.50;1.40;;;;;;;;;;5083343;28;20565;-43
2021/01/12 13:15:12;;;;;;;1.00;1.00;;;;;;;;;;5076637;28;20174;-43
2021/01/12 13:17:42;;;;;;;1.20;1.20;;;;;;;;;;5063174;28;20575;-42
2021/01/12 13:20:07;;;;;;;1.30;1.30;;;;;;;;;;5070731;28;20175;-43
2021/01/12 13:22:33;;;;;;;1.30;1.30;;;;;;;;;;5066663;28;20606;-43
2021/01/12 13:24:58;;;;;;;1.17;1.00;;;;;;;;;;5068192;28;20278;-43
2021/01/12 13:27:25;;;;;;;1.00;1.00;;;;;;;;;;5069971;28;20233;-43
2021/01/12 13:29:50;;;;;;;1.17;1.17;;;;;;;;;;5068532;28;20181;-43
2021/01/12 13:32:15;;;;;;;1.25;1.20;;;;;;;;;;5068343;28;20700;-43
2021/01/12 13:34:40;;;;;;;1.15;1.15;;;;;;;;;;5079263;28;20384;-42
2021/01/12 13:37:05;;;;;;;1.08;0.98;;;;;;;;;;5070348;28;20401;-42
2021/01/12 13:39:31;;;;;;;1.20;1.20;;;;;;;;;;5069848;28;20263;-43
2021/01/12 13:41:56;;;;;;;1.40;1.10;;;;;;;;;;5069904;28;20179;-43
2021/01/12 13:44:21;;;;;;;1.70;1.60;;;;;;;;;;5081125;28;20174;-43
2021/01/12 13:46:47;;;;;;;1.20;1.20;;;;;;;;;;5072974;28;20182;-42
2021/01/12 13:49:12;;;;;;;0.97;0.97;;;;;;;;;;5069806;28;20254;-43
2021/01/12 13:51:40;;;;;;;0.90;0.90;;;;;;;;;;5063892;28;20182;-42
2021/01/12 13:54:06;;;;;;;1.17;1.07;;;;;;;;;;5069244;28;20202;-42
2021/01/12 13:56:35;;;;;;;1.00;1.00;;;;;;;;;;5069202;28;20680;-43
2021/01/12 13:59:01;;;;;;;1.27;1.27;;;;;;;;;;5059985;28;20602;-42
2021/01/12 14:01:26;;;;;;;1.13;1.13;;;;;;;;;;5070060;28;20681;-43
2021/01/12 14:03:51;;;;;;;1.00;1.00;;;;;;;;;;5068469;28;20643;-43
2021/01/12 14:06:16;;;;;;;1.00;1.00;;;;;;;;;;5066042;28;20189;-43
2021/01/12 14:08:41;;;;;;;1.10;1.10;;;;;;;;;;5068195;28;20167;-43
2021/01/12 14:11:07;;;;;;;1.20;1.20;;;;;;;;;;5070009;28;20197;-42
2021/01/12 14:13:32;;;;;;;1.30;1.30;;;;;;;;;;5068924;28;20225;-42
2021/01/12 14:15:58;;;;;;;3.57;1.30;;;;;;;;;;5068528;28;20222;-42
2021/01/12 14:18:29;;;;;;;0.97;0.97;;;;;;;;;;5066341;28;20623;-43
2021/01/12 14:20:54;;;;;;;1.40;1.40;;;;;;;;;;5068088;28;20183;-43
2021/01/12 14:23:22;;;;;;;1.10;1.10;;;;;;;;;;5068715;28;20612;-43
2021/01/12 14:25:53;;;;;;;2.00;1.20;;;;;;;;;;5068059;28;20252;-43